Time;durP1;ratioP1;P1;durP2;ratioP2;P2;SDS_P1;SDS_P2;PMS_P1;PMS_P2;Temp;Humidity;BMP_temperature;BMP_pressure;BME280_temperature;BME280_humidity;BME280_pressure;Samples;Min_cycle;Max_cycle;Signal;HPM_P1;HPM_P2
2022/01/28 00:01:33;;;;;;;;;1.00;0.00;;;;;6.08;80.69;102900.88;5057026;28;10731;-69
2022/01/28 00:04:11;;;;;;;;;0.50;0.50;;;;;6.06;80.61;102895.63;5045527;28;10590;-69
2022/01/28 00:06:38;;;;;;;;;2.00;1.00;;;;;6.13;80.59;102887.97;5055877;28;10726;-69
2022/01/28 00:09:05;;;;;;;;;1.00;1.00;;;;;6.08;80.30;102884.75;5055656;28;10666;-69
2022/01/28 00:11:33;;;;;;;;;1.00;0.00;;;;;6.13;80.64;102893.34;5058497;28;10660;-69
2022/01/28 00:19:45;;;;;;;;;2.00;1.00;;;;;6.08;80.24;102891.00;5053528;28;11368;-70
2022/01/28 00:38:35;;;;;;;;;0.00;0.00;;;;;6.09;80.68;102924.13;5059978;28;10484;-70
2022/01/28 00:41:03;;;;;;;;;1.00;1.00;;;;;6.04;81.06;102932.50;5047961;28;10573;-69
2022/01/28 00:43:29;;;;;;;;;0.00;0.00;;;;;6.03;81.11;102929.94;5040302;28;10615;-70
2022/01/28 00:45:56;;;;;;;;;1.50;1.00;;;;;6.06;81.37;102933.25;5049034;28;10481;-70
2022/01/28 00:48:22;;;;;;;;;3.00;1.00;;;;;5.99;80.98;102945.44;5058243;28;10536;-69
2022/01/28 00:50:49;;;;;;;;;0.00;0.00;;;;;6.04;81.46;102939.72;5058410;28;10713;-70
2022/01/28 00:53:15;;;;;;;;;0.00;0.00;;;;;6.05;81.06;102944.13;5047515;28;11290;-69
2022/01/28 00:55:42;;;;;;;;;0.00;0.00;;;;;6.10;79.98;102952.72;5061263;28;10933;-69
2022/01/28 00:58:08;;;;;;;;;0.00;0.00;;;;;6.10;79.54;102947.34;5060084;28;10443;-70
2022/01/28 01:00:35;;;;;;;;;0.25;0.25;;;;;6.04;79.63;102951.34;5060411;28;10436;-69
2022/01/28 01:03:01;;;;;;;;;0.00;0.00;;;;;6.04;79.28;102948.66;5058776;28;10679;-69
2022/01/28 01:05:34;;;;;;;;;0.00;0.00;;;;;6.11;78.72;102949.06;5039931;28;11429;-70
2022/01/28 01:08:01;;;;;;;;;0.00;0.00;;;;;6.07;78.36;102955.63;5042338;28;10555;-69
2022/01/28 01:10:29;;;;;;;;;0.00;0.00;;;;;6.07;78.64;102945.75;5060131;28;10522;-70
2022/01/28 01:12:56;;;;;;;;;2.00;0.00;;;;;6.05;78.67;102949.50;5048209;28;10436;-70
2022/01/28 01:15:27;;;;;;;;;0.00;0.00;;;;;6.05;78.50;102949.50;5061764;28;10578;-70
2022/01/28 01:18:03;;;;;;;;;0.00;0.00;;;;;6.09;78.54;102949.19;5046764;28;10436;-70
2022/01/28 01:25:41;;;;;;;;;0.75;0.00;;;;;6.10;78.26;102966.19;5060854;28;10443;-70
2022/01/28 01:28:11;;;;;;;;;0.00;0.00;;;;;6.10;78.71;102964.34;5059046;28;11070;-71
2022/01/28 01:30:40;;;;;;;;;0.00;0.00;;;;;6.07;77.69;102969.94;5058960;28;10494;-70
2022/01/28 01:33:09;;;;;;;;;0.00;0.00;;;;;6.08;77.99;102966.28;5041647;28;10574;-71
2022/01/28 01:35:35;;;;;;;;;0.00;0.00;;;;;6.06;77.64;102962.84;5058667;28;11338;-70
2022/01/28 01:38:03;;;;;;;;;0.00;0.00;;;;;6.10;77.94;102972.41;5047120;28;11348;-71
2022/01/28 01:40:35;;;;;;;;;1.50;0.50;;;;;6.11;77.52;102979.50;5059173;28;10572;-70
2022/01/28 01:54:03;;;;;;;;;3.50;0.00;;;;;6.15;80.37;102983.69;5059969;28;10661;-71
2022/01/28 01:56:32;;;;;;;;;1.00;0.00;;;;;6.14;80.85;102991.88;5059554;28;10765;-70
2022/01/28 01:58:59;;;;;;;;;1.50;0.00;;;;;6.19;81.25;102992.41;5048063;28;11225;-71
2022/01/28 02:01:26;;;;;;;;;1.00;1.00;;;;;6.15;81.83;102998.97;5058866;28;10425;-71
2022/01/28 02:03:52;;;;;;;;;0.00;0.00;;;;;6.12;82.03;103002.75;5058082;28;10560;-70
2022/01/28 02:06:21;;;;;;;;;1.00;1.00;;;;;6.12;82.74;103002.75;5053197;28;10446;-70
2022/01/28 02:08:48;;;;;;;;;1.25;0.00;;;;;6.14;83.24;103005.31;5058924;28;10663;-72
2022/01/28 02:11:15;;;;;;;;;1.25;0.00;;;;;6.16;83.39;103004.25;5058342;28;10673;-72
2022/01/28 02:13:48;;;;;;;;;0.00;0.00;;;;;6.15;83.11;103005.22;5060897;28;10537;-72
2022/01/28 02:16:14;;;;;;;;;1.00;1.00;;;;;6.13;82.96;102998.22;5059704;28;10589;-72
2022/01/28 02:18:41;;;;;;;;;1.00;0.00;;;;;6.12;82.96;102999.19;5059033;28;10686;-72
2022/01/28 02:21:10;;;;;;;;;1.50;0.00;;;;;6.09;82.64;103002.97;5058422;28;10703;-71
2022/01/28 02:23:39;;;;;;;;;3.00;0.50;;;;;6.09;82.87;102999.41;5057258;28;10592;-72
2022/01/28 02:26:06;;;;;;;;;0.00;0.00;;;;;6.11;82.58;103005.53;5041614;28;10513;-72
2022/01/28 02:28:37;;;;;;;;;0.75;0.75;;;;;6.10;81.09;103004.69;5046687;28;10616;-72
2022/01/28 02:31:05;;;;;;;;;2.00;0.75;;;;;6.05;81.76;103017.59;5061125;28;10401;-72
2022/01/28 02:33:32;;;;;;;;;3.75;0.25;;;;;6.01;80.63;103017.91;5047270;28;10465;-73
2022/01/28 02:36:04;;;;;;;;;1.00;1.00;;;;;6.01;80.51;103020.59;5041487;28;10650;-72
2022/01/28 02:38:31;;;;;;;;;0.00;0.00;;;;;6.00;80.29;103021.56;5058561;28;10567;-73
2022/01/28 02:41:00;;;;;;;;;0.00;0.00;;;;;6.03;80.72;103030.28;5046802;28;10526;-72
2022/01/28 02:46:10;;;;;;;;;1.25;0.75;;;;;5.88;80.72;103047.41;5057351;28;10670;-72
2022/01/28 02:48:40;;;;;;;;;0.00;0.00;;;;;5.96;80.67;103057.72;5058832;28;10514;-73
2022/01/28 02:51:17;;;;;;;;;2.00;0.00;;;;;5.93;79.63;103044.44;5047022;28;10632;-72
2022/01/28 02:53:49;;;;;;;;;1.00;0.25;;;;;5.92;80.07;103053.47;5046817;28;10638;-72
2022/01/28 02:56:35;;;;;;;;;2.00;0.50;;;;;5.93;80.24;103057.88;5046533;28;10654;-72
2022/01/28 02:59:06;;;;;;;;;0.00;0.00;;;;;5.91;79.95;103059.81;5042635;28;10625;-73
2022/01/28 03:01:33;;;;;;;;;0.00;0.00;;;;;5.92;80.20;103064.22;5031159;28;10621;-72
2022/01/28 03:04:02;;;;;;;;;2.00;0.00;;;;;5.88;79.97;103060.84;5058464;28;10516;-74
2022/01/28 03:06:28;;;;;;;;;0.25;0.25;;;;;5.88;80.30;103066.22;5049289;28;10666;-71
2022/01/28 03:09:01;;;;;;;;;0.00;0.00;;;;;5.82;80.44;103074.72;5041337;28;10675;-73
2022/01/28 03:16:39;;;;;;;;;0.00;0.00;;;;;5.78;80.15;103068.69;5036182;28;10815;-73
2022/01/28 03:19:16;;;;;;;;;1.00;0.50;;;;;5.79;80.62;103053.44;5057674;28;10707;-73
2022/01/28 03:21:53;;;;;;;;;2.00;2.00;;;;;5.76;80.39;103064.38;5059452;28;10753;-72
2022/01/28 03:24:20;;;;;;;;;0.00;0.00;;;;;5.78;80.85;103057.94;5048139;28;10582;-73
2022/01/28 03:26:52;;;;;;;;;3.50;0.50;;;;;5.79;80.84;103059.66;5058822;28;10569;-72
2022/01/28 03:29:19;;;;;;;;;0.00;0.00;;;;;5.79;80.92;103073.09;5045660;28;10588;-73
2022/01/28 03:31:45;;;;;;;;;1.00;1.00;;;;;5.74;81.11;103069.00;5047101;28;10801;-72
2022/01/28 03:34:13;;;;;;;;;0.00;0.00;;;;;5.74;81.30;103072.56;5056072;28;10600;-73
2022/01/28 03:36:40;;;;;;;;;0.50;0.50;;;;;5.73;81.41;103073.53;5057945;28;10494;-73
2022/01/28 03:39:08;;;;;;;;;0.75;0.00;;;;;5.75;81.07;103084.16;5057799;28;10753;-74
2022/01/28 03:41:35;;;;;;;;;0.25;0.25;;;;;5.70;81.49;103087.16;5046881;28;10585;-70
2022/01/28 03:44:02;;;;;;;;;0.50;0.00;;;;;5.68;81.61;103083.69;5047253;28;10569;-71
2022/01/28 03:46:30;;;;;;;;;0.00;0.00;;;;;5.65;82.08;103074.97;5046202;28;10408;-73
2022/01/28 03:48:57;;;;;;;;;0.00;0.00;;;;;5.66;82.36;103079.38;5041893;28;10750;-73
2022/01/28 03:51:25;;;;;;;;;0.00;0.00;;;;;5.69;82.39;103073.81;5047684;28;10779;-73
2022/01/28 03:53:51;;;;;;;;;1.00;1.00;;;;;5.67;82.23;103073.91;5045672;28;10581;-73
2022/01/28 03:56:18;;;;;;;;;1.00;0.00;;;;;5.68;82.63;103072.09;5045564;28;10685;-70
2022/01/28 03:58:44;;;;;;;;;1.00;0.00;;;;;5.64;82.19;103084.88;5041723;28;10670;-71
2022/01/28 04:01:17;;;;;;;;;0.00;0.00;;;;;5.68;82.37;103077.47;5061775;28;10776;-71
2022/01/28 04:11:50;;;;;;;;;0.00;0.00;;;;;5.75;82.23;103111.91;5053547;28;10683;-71
2022/01/28 04:19:40;;;;;;;;;0.00;0.00;;;;;5.76;82.67;103105.56;5060085;28;10677;-70
2022/01/28 04:22:07;;;;;;;;;1.25;0.00;;;;;5.72;82.82;103109.44;5061437;28;10576;-71
2022/01/28 04:24:34;;;;;;;;;0.25;0.25;;;;;5.73;82.76;103112.97;5058207;28;11288;-72
2022/01/28 04:27:00;;;;;;;;;1.00;0.00;;;;;5.79;82.42;103105.34;5060403;28;10808;-71
2022/01/28 04:29:26;;;;;;;;;2.00;0.00;;;;;5.74;82.11;103104.81;5060771;28;10780;-70
2022/01/28 04:31:53;;;;;;;;;0.00;0.00;;;;;5.75;82.25;103108.34;5028409;28;10672;-72
2022/01/28 04:34:22;;;;;;;;;0.00;0.00;;;;;5.76;82.41;103110.94;5061764;28;10569;-72
2022/01/28 04:44:42;;;;;;;;;0.75;0.00;;;;;5.80;81.32;103122.34;5062314;28;10572;-71
2022/01/28 04:47:20;;;;;;;;;0.00;0.00;;;;;5.80;81.75;103136.66;5058987;28;10771;-72
2022/01/28 05:00:11;;;;;;;;;0.00;0.00;;;;;5.81;82.21;103132.13;5060962;28;10579;-72
2022/01/28 05:03:08;;;;;;;;;0.00;0.00;;;;;5.77;82.10;103146.75;5061100;28;11383;-71
2022/01/28 05:08:23;;;;;;;;;0.00;0.00;;;;;5.73;82.36;103145.22;5059475;28;10820;-71
2022/01/28 05:27:00;;;;;;;;;0.25;0.00;;;;;5.55;83.56;103164.25;5043249;28;10701;-71
2022/01/28 05:29:27;;;;;;;;;0.50;0.00;;;;;5.63;84.19;103168.25;5058804;28;10720;-71
2022/01/28 05:31:53;;;;;;;;;1.00;0.50;;;;;5.66;84.23;103173.44;5042364;28;10637;-71
2022/01/28 05:34:24;;;;;;;;;1.00;0.25;;;;;5.68;84.24;103182.25;5043848;28;10722;-71
2022/01/28 05:36:51;;;;;;;;;1.00;0.50;;;;;5.65;84.27;103182.47;5059903;28;10698;-71
2022/01/28 05:39:18;;;;;;;;;0.00;0.00;;;;;5.69;84.31;103181.28;5060054;28;10581;-73
2022/01/28 05:41:45;;;;;;;;;1.00;1.00;;;;;5.64;84.01;103189.66;5061415;28;10654;-70
2022/01/28 05:44:11;;;;;;;;;0.75;0.75;;;;;5.69;84.52;103187.53;5042700;28;10663;-71
2022/01/28 05:46:38;;;;;;;;;0.00;0.00;;;;;5.72;84.35;103192.75;5061419;28;10643;-71
2022/01/28 05:49:06;;;;;;;;;0.00;0.00;;;;;5.73;84.04;103185.53;5041409;28;10576;-71
2022/01/28 05:51:32;;;;;;;;;0.75;0.00;;;;;5.77;84.19;103181.69;5042055;28;10531;-71
2022/01/28 05:53:59;;;;;;;;;0.00;0.00;;;;;5.78;84.54;103186.94;5059723;28;10975;-71
2022/01/28 05:56:27;;;;;;;;;0.00;0.00;;;;;5.79;84.34;103190.50;5059111;28;10591;-71
2022/01/28 05:58:54;;;;;;;;;1.00;0.00;;;;;5.78;84.20;103195.03;5060185;28;11367;-71
2022/01/28 06:01:21;;;;;;;;;1.50;0.00;;;;;5.76;84.39;103193.41;5041689;28;10668;-72
2022/01/28 06:03:48;;;;;;;;;0.25;0.25;;;;;5.75;84.39;103197.91;5058685;28;10652;-72
2022/01/28 06:06:19;;;;;;;;;0.00;0.00;;;;;5.77;84.41;103201.34;5061272;28;10851;-72
2022/01/28 06:08:47;;;;;;;;;0.25;0.25;;;;;5.80;84.34;103213.72;5059193;28;10698;-71
2022/01/28 06:11:14;;;;;;;;;0.00;0.00;;;;;5.81;84.07;103210.09;5055896;28;10632;-71
2022/01/28 06:13:41;;;;;;;;;0.00;0.00;;;;;5.79;84.19;103212.88;5046337;28;10562;-72
2022/01/28 06:16:07;;;;;;;;;2.00;0.00;;;;;5.79;83.70;103209.31;5059062;28;10750;-71
2022/01/28 06:18:34;;;;;;;;;0.50;0.00;;;;;5.77;83.81;103213.94;5058865;28;10743;-71
2022/01/28 06:21:00;;;;;;;;;1.00;1.00;;;;;5.70;83.72;103212.59;5039349;28;10716;-72
2022/01/28 06:23:28;;;;;;;;;0.75;0.75;;;;;5.77;84.20;103219.31;5058394;28;10804;-71
2022/01/28 06:25:55;;;;;;;;;0.25;0.25;;;;;5.75;83.87;103208.66;5057880;28;10845;-71
2022/01/28 06:28:21;;;;;;;;;1.00;0.00;;;;;5.74;83.98;103219.50;5058910;28;10571;-71
2022/01/28 06:30:48;;;;;;;;;0.50;0.50;;;;;5.70;83.64;103234.09;5047533;28;10591;-72
2022/01/28 06:33:15;;;;;;;;;0.75;0.00;;;;;5.71;84.05;103230.47;5057101;28;11446;-71
2022/01/28 06:35:43;;;;;;;;;0.00;0.00;;;;;5.70;83.73;103237.66;5059724;28;10816;-71
2022/01/28 06:38:11;;;;;;;;;0.00;0.00;;;;;5.67;83.93;103245.03;5046870;28;10732;-71
2022/01/28 06:40:38;;;;;;;;;0.50;0.00;;;;;5.69;83.97;103243.97;5056755;28;10763;-71
2022/01/28 06:43:08;;;;;;;;;0.00;0.00;;;;;5.72;83.96;103240.25;5043780;28;11476;-70
2022/01/28 06:45:36;;;;;;;;;0.00;0.00;;;;;5.66;83.72;103238.78;5058179;28;10792;-70
2022/01/28 06:48:02;;;;;;;;;1.00;0.25;;;;;5.61;83.68;103243.59;5057475;28;10714;-70
2022/01/28 06:50:29;;;;;;;;;2.25;1.00;;;;;5.60;83.79;103249.06;5047448;28;10649;-72
2022/01/28 06:52:55;;;;;;;;;0.25;0.00;;;;;5.65;83.57;103252.34;5054653;28;10746;-71
2022/01/28 06:55:22;;;;;;;;;0.75;0.75;;;;;5.64;84.03;103246.09;5059541;28;10820;-71
2022/01/28 06:57:48;;;;;;;;;0.00;0.00;;;;;5.64;83.98;103243.41;5046148;28;10642;-71
2022/01/28 07:00:15;;;;;;;;;1.00;0.00;;;;;5.63;83.85;103248.88;5039481;28;10564;-70
2022/01/28 07:02:41;;;;;;;;;0.25;0.00;;;;;5.61;84.13;103257.03;5057367;28;10580;-70
2022/01/28 07:05:09;;;;;;;;;0.00;0.00;;;;;5.64;84.18;103258.66;5044967;28;10509;-71
2022/01/28 07:07:36;;;;;;;;;0.00;0.00;;;;;5.60;83.53;103265.19;5055165;28;10779;-72
2022/01/28 07:10:03;;;;;;;;;1.00;1.00;;;;;5.63;83.82;103273.94;5056909;28;10705;-71
2022/01/28 07:12:30;;;;;;;;;0.00;0.00;;;;;5.64;83.49;103272.97;5046259;28;10817;-71
2022/01/28 07:14:56;;;;;;;;;0.25;0.25;;;;;5.64;83.84;103272.09;5057620;28;10547;-70
2022/01/28 07:17:23;;;;;;;;;1.00;1.00;;;;;5.65;83.48;103277.38;5040355;28;10690;-72
2022/01/28 07:19:49;;;;;;;;;0.00;0.00;;;;;5.70;83.16;103283.34;5046289;28;10751;-72
2022/01/28 07:22:16;;;;;;;;;2.00;0.00;;;;;5.68;83.17;103287.94;5055815;28;10605;-71
2022/01/28 07:24:43;;;;;;;;;0.00;0.00;;;;;5.70;83.14;103290.53;5045930;28;10668;-71
2022/01/28 07:27:10;;;;;;;;;0.00;0.00;;;;;5.70;83.04;103288.72;5056426;28;10710;-71
2022/01/28 07:29:36;;;;;;;;;0.00;0.00;;;;;5.75;82.86;103288.44;5047213;28;10575;-70
2022/01/28 07:32:03;;;;;;;;;2.00;1.00;;;;;5.75;82.45;103300.03;5057635;28;10588;-71
2022/01/28 07:34:30;;;;;;;;;0.00;0.00;;;;;5.81;82.53;103293.41;5052559;28;10586;-72
2022/01/28 07:36:57;;;;;;;;;0.00;0.00;;;;;5.84;81.97;103302.13;5043017;28;10600;-71
2022/01/28 07:39:23;;;;;;;;;0.75;0.75;;;;;5.78;81.92;103294.47;5056317;28;10547;-71
2022/01/28 07:41:50;;;;;;;;;0.00;0.00;;;;;5.84;82.45;103295.91;5055999;28;10691;-71
2022/01/28 07:44:16;;;;;;;;;0.50;0.00;;;;;5.87;82.18;103293.88;5057507;28;11008;-70
2022/01/28 07:46:43;;;;;;;;;0.00;0.00;;;;;5.88;82.39;103303.66;5059392;28;10508;-70
2022/01/28 07:49:15;;;;;;;;;1.50;1.00;;;;;5.83;82.22;103313.84;5055194;28;10661;-71
2022/01/28 07:51:42;;;;;;;;;0.00;0.00;;;;;5.86;82.62;103310.97;5057300;28;10743;-72
2022/01/28 07:54:09;;;;;;;;;0.00;0.00;;;;;5.88;82.46;103309.03;5054846;28;10428;-73
2022/01/28 07:56:37;;;;;;;;;0.25;0.25;;;;;5.89;82.43;103315.28;5037678;28;10669;-70
2022/01/28 07:59:04;;;;;;;;;0.00;0.00;;;;;5.84;83.01;103322.78;5054468;28;10595;-70
2022/01/28 08:01:30;;;;;;;;;0.00;0.00;;;;;5.94;83.55;103337.38;5055035;28;10692;-73
2022/01/28 08:03:57;;;;;;;;;0.00;0.00;;;;;5.91;82.95;103334.88;5055309;28;10581;-69
2022/01/28 08:06:26;;;;;;;;;1.00;0.00;;;;;5.95;83.00;103335.56;5054716;28;10667;-70
2022/01/28 08:08:53;;;;;;;;;0.00;0.00;;;;;5.90;82.67;103335.00;5035904;28;10671;-70
2022/01/28 08:11:19;;;;;;;;;0.00;0.00;;;;;5.96;83.28;103343.56;5033417;28;10524;-70
2022/01/28 08:13:46;;;;;;;;;1.25;0.00;;;;;5.92;83.21;103336.63;5050124;28;10680;-72
2022/01/28 08:16:12;;;;;;;;;1.00;1.00;;;;;5.91;83.38;103339.41;5036014;28;10593;-72
2022/01/28 08:18:39;;;;;;;;;0.00;0.00;;;;;5.88;83.22;103340.44;5037437;28;10580;-71
2022/01/28 08:21:05;;;;;;;;;0.00;0.00;;;;;5.85;83.57;103344.19;5052502;28;10550;-73
2022/01/28 08:23:32;;;;;;;;;0.00;0.00;;;;;5.87;83.78;103357.53;5051210;28;10624;-71
2022/01/28 08:25:59;;;;;;;;;0.50;0.00;;;;;5.98;83.91;103356.91;5036234;28;10613;-71
2022/01/28 08:28:25;;;;;;;;;0.00;0.00;;;;;5.98;83.46;103359.59;5035013;28;10671;-71
2022/01/28 08:30:53;;;;;;;;;0.00;0.00;;;;;6.84;87.97;103362.91;5021414;28;10599;-71
2022/01/28 08:33:19;;;;;;;;;0.00;0.00;;;;;6.52;81.76;103367.75;5037430;28;11879;-71
2022/01/28 08:35:51;;;;;;;;;0.00;0.00;;;;;6.66;81.41;103368.56;5056116;28;10588;-70
2022/01/28 08:38:26;;;;;;;;;0.00;0.00;;;;;6.83;80.41;103356.69;5055961;28;11232;-71
2022/01/28 08:40:55;;;;;;;;;1.00;0.00;;;;;7.06;79.41;103365.91;5056837;28;10446;-71
2022/01/28 08:43:22;;;;;;;;;0.75;0.75;;;;;7.15;79.13;103370.66;5039602;28;10546;-71
2022/01/28 08:45:49;;;;;;;;;0.00;0.00;;;;;7.24;78.69;103364.66;5059010;28;10293;-72
2022/01/28 08:48:15;;;;;;;;;0.00;0.00;;;;;7.38;78.52;103369.06;5043512;28;10324;-72
2022/01/28 08:50:42;;;;;;;;;0.00;0.00;;;;;7.43;77.76;103371.44;5062044;28;10346;-72
2022/01/28 08:53:10;;;;;;;;;0.00;0.00;;;;;7.42;77.51;103375.97;5047262;28;10257;-71
2022/01/28 08:55:38;;;;;;;;;0.00;0.00;;;;;7.46;77.72;103374.81;5056559;28;10294;-71
2022/01/28 08:58:06;;;;;;;;;3.00;1.00;;;;;7.52;77.53;103382.47;5058530;28;10178;-72
2022/01/28 09:00:32;;;;;;;;;0.00;0.00;;;;;7.62;77.41;103386.25;5059249;28;10141;-71
2022/01/28 09:02:59;;;;;;;;;0.00;0.00;;;;;7.70;76.92;103389.28;5059009;28;10243;-71
2022/01/28 09:05:25;;;;;;;;;0.00;0.00;;;;;7.70;76.69;103386.59;5060175;28;10387;-73
2022/01/28 09:07:52;;;;;;;;;1.25;1.25;;;;;7.79;76.01;103387.75;5058145;28;10228;-71
2022/01/28 09:10:19;;;;;;;;;0.00;0.00;;;;;7.78;75.86;103382.47;5057435;28;10373;-71
2022/01/28 09:12:59;;;;;;;;;1.00;0.00;;;;;7.93;75.41;103392.16;5057097;28;10156;-72
2022/01/28 09:15:26;;;;;;;;;3.00;1.75;;;;;8.15;74.88;103402.28;5057938;28;10395;-71
2022/01/28 09:17:56;;;;;;;;;1.00;1.00;;;;;8.27;74.11;103402.28;5056821;28;10215;-70
2022/01/28 09:20:27;;;;;;;;;0.25;0.25;;;;;8.47;73.63;103411.66;5060424;28;10260;-72
2022/01/28 09:22:54;;;;;;;;;2.00;2.00;;;;;9.00;74.19;103422.16;5044564;28;10179;-70
2022/01/28 09:25:20;;;;;;;;;0.00;0.00;;;;;8.55;72.78;103424.59;5023445;28;10202;-73
2022/01/28 09:27:48;;;;;;;;;2.00;2.00;;;;;8.62;72.00;103421.31;5059538;28;10079;-72
2022/01/28 09:30:15;;;;;;;;;2.00;2.00;;;;;8.82;71.45;103430.66;5059785;28;10207;-72
2022/01/28 09:32:41;;;;;;;;;4.00;1.00;;;;;8.99;70.98;103424.00;5041755;28;10208;-70
2022/01/28 09:35:08;;;;;;;;;2.50;0.50;;;;;8.74;71.29;103429.50;5059290;28;10381;-71
2022/01/28 09:37:35;;;;;;;;;0.00;0.00;;;;;8.37;72.32;103432.19;5042481;28;10082;-71
2022/01/28 09:40:06;;;;;;;;;4.50;2.50;;;;;8.18;73.89;103419.16;5057908;28;10063;-72
2022/01/28 09:42:38;;;;;;;;;3.00;2.00;;;;;8.02;74.15;103424.75;5039917;28;10430;-72
2022/01/28 09:45:07;;;;;;;;;1.00;1.00;;;;;8.06;74.49;103430.78;5056182;28;10090;-71
2022/01/28 09:47:34;;;;;;;;;0.75;0.75;;;;;7.98;74.94;103423.25;5056697;28;10173;-70
2022/01/28 09:50:03;;;;;;;;;3.00;3.00;;;;;7.98;74.59;103415.16;5042082;28;10233;-71
2022/01/28 09:52:29;;;;;;;;;2.00;2.00;;;;;8.05;74.99;103420.97;5057650;28;10383;-71
2022/01/28 09:54:56;;;;;;;;;1.25;1.25;;;;;7.99;74.32;103418.72;5057721;28;10700;-72
2022/01/28 09:57:23;;;;;;;;;0.75;0.75;;;;;7.93;74.87;103425.41;5039527;28;10294;-71
2022/01/28 09:59:50;;;;;;;;;1.00;1.00;;;;;8.12;75.38;103424.09;5058222;28;10215;-72
2022/01/28 10:02:16;;;;;;;;;1.25;0.00;;;;;8.46;74.78;103438.78;5057807;28;10232;-71
2022/01/28 10:04:43;;;;;;;;;1.75;1.50;;;;;8.56;74.62;103434.41;5055813;28;10364;-71
2022/01/28 10:07:16;;;;;;;;;0.00;0.00;;;;;8.68;73.78;103444.34;5042710;28;10233;-71
2022/01/28 10:09:57;;;;;;;;;0.25;0.00;;;;;8.53;74.10;103446.31;5058094;28;10052;-71
2022/01/28 10:12:36;;;;;;;;;1.00;0.75;;;;;8.49;74.17;103449.34;5042007;28;10066;-71
2022/01/28 10:15:17;;;;;;;;;1.75;0.00;;;;;8.63;74.61;103457.28;5043556;28;10136;-70
2022/01/28 10:17:54;;;;;;;;;0.00;0.00;;;;;8.76;74.12;103455.44;5019301;28;9985;-71
2022/01/28 10:20:22;;;;;;;;;0.00;0.00;;;;;8.87;73.79;103449.22;5057795;28;10239;-71
2022/01/28 10:22:54;;;;;;;;;0.25;0.25;;;;;8.91;73.65;103445.31;5059085;28;9964;-72
2022/01/28 10:25:34;;;;;;;;;1.00;0.00;;;;;8.89;72.96;103444.56;5040682;28;10062;-70
2022/01/28 10:28:04;;;;;;;;;1.00;1.00;;;;;9.00;73.14;103444.66;5057499;28;10122;-71
2022/01/28 10:30:34;;;;;;;;;0.00;0.00;;;;;8.82;73.56;103440.59;5052977;28;10200;-72
2022/01/28 10:33:21;;;;;;;;;1.00;1.00;;;;;8.66;74.81;103440.84;5058302;28;10144;-72
2022/01/28 10:35:54;;;;;;;;;2.00;1.00;;;;;8.49;73.91;103436.72;5056323;28;10012;-71
2022/01/28 10:38:28;;;;;;;;;1.00;1.00;;;;;8.32;73.11;103431.63;5058169;28;10014;-71
2022/01/28 10:41:14;;;;;;;;;1.00;1.00;;;;;8.29;73.78;103432.72;5058086;28;10073;-71
2022/01/28 10:43:51;;;;;;;;;3.00;2.00;;;;;8.17;74.46;103424.63;5058514;28;10182;-71
2022/01/28 10:46:20;;;;;;;;;0.25;0.00;;;;;8.33;75.01;103428.84;5057817;28;10145;-72
2022/01/28 10:48:53;;;;;;;;;0.00;0.00;;;;;8.34;75.07;103427.00;5059709;28;10158;-72
2022/01/28 10:51:21;;;;;;;;;1.50;1.00;;;;;8.33;74.36;103417.16;5058502;28;10230;-72
2022/01/28 10:54:13;;;;;;;;;0.75;0.00;;;;;8.50;73.88;103411.44;5057762;28;10178;-70
2022/01/28 10:57:09;;;;;;;;;0.50;0.50;;;;;8.43;73.88;103417.41;5058475;28;10826;-72
2022/01/28 10:59:40;;;;;;;;;0.00;0.00;;;;;8.47;72.85;103416.19;5037295;28;11443;-72
2022/01/28 11:02:07;;;;;;;;;0.00;0.00;;;;;8.55;72.47;103413.78;5040948;28;10144;-71
2022/01/28 11:04:34;;;;;;;;;3.00;2.00;;;;;8.41;72.41;103416.63;5057524;28;10183;-71
2022/01/28 11:07:02;;;;;;;;;0.75;0.00;;;;;8.36;72.36;103414.25;5057704;28;10072;-71
2022/01/28 11:09:30;;;;;;;;;1.00;1.00;;;;;8.37;72.75;103416.00;5056794;28;9987;-70
2022/01/28 11:11:57;;;;;;;;;1.25;1.00;;;;;8.63;73.48;103408.69;5038737;28;10224;-73
2022/01/28 11:14:25;;;;;;;;;1.00;0.00;;;;;8.60;72.92;103407.06;5054022;28;10099;-72
2022/01/28 11:16:52;;;;;;;;;1.50;0.00;;;;;8.75;72.25;103404.22;5058972;28;10050;-72
2022/01/28 11:19:21;;;;;;;;;0.00;0.00;;;;;8.66;72.01;103410.28;5039202;28;10182;-71
2022/01/28 11:21:48;;;;;;;;;0.00;0.00;;;;;8.41;69.51;103406.69;5055454;28;9971;-71
2022/01/28 11:24:42;;;;;;;;;1.00;1.00;;;;;8.41;67.68;103393.19;5057321;28;9877;-73
2022/01/28 11:27:31;;;;;;;;;0.75;0.75;;;;;8.45;64.38;103389.31;5055463;28;10129;-72
2022/01/28 11:30:21;;;;;;;;;1.25;1.25;;;;;8.33;64.26;103387.47;5038921;28;10068;-72
2022/01/28 11:33:02;;;;;;;;;1.00;1.00;;;;;8.25;64.48;103384.47;5037073;28;10141;-72
2022/01/28 11:35:40;;;;;;;;;1.00;0.00;;;;;8.40;64.14;103386.06;5054015;28;10276;-72
2022/01/28 11:38:25;;;;;;;;;0.00;0.00;;;;;8.73;63.05;103380.03;5047105;28;10122;-72
2022/01/28 11:40:56;;;;;;;;;0.00;0.00;;;;;8.77;62.65;103378.81;5040302;28;10155;-72
2022/01/28 11:43:24;;;;;;;;;0.25;0.25;;;;;8.96;62.91;103375.59;5040730;28;10179;-72
2022/01/28 11:46:08;;;;;;;;;0.25;0.00;;;;;9.14;63.04;103370.63;5026495;28;10116;-72
2022/01/28 11:48:56;;;;;;;;;0.00;0.00;;;;;9.19;62.16;103363.03;5058263;28;10304;-72
2022/01/28 11:51:32;;;;;;;;;3.00;0.00;;;;;9.33;64.24;103353.84;5053933;28;10804;-72
2022/01/28 11:54:32;;;;;;;;;0.50;0.50;;;;;9.28;64.32;103358.75;5030999;28;9920;-72
2022/01/28 11:56:58;;;;;;;;;0.50;0.50;;;;;9.12;64.85;103349.13;5053694;28;9932;-71
2022/01/28 11:59:26;;;;;;;;;0.00;0.00;;;;;9.11;63.38;103343.84;5056723;28;10046;-72
2022/01/28 12:01:52;;;;;;;;;0.75;0.00;;;;;9.37;64.07;103342.66;5057535;28;9841;-71
2022/01/28 12:04:25;;;;;;;;;2.00;0.00;;;;;9.44;63.06;103325.00;5056591;28;9905;-72
2022/01/28 12:07:00;;;;;;;;;0.00;0.00;;;;;9.55;62.48;103329.56;5055520;28;9816;-71
2022/01/28 12:09:29;;;;;;;;;0.00;0.00;;;;;9.50;61.91;103329.94;5039014;28;9866;-70
2022/01/28 12:11:57;;;;;;;;;0.00;0.00;;;;;9.53;62.30;103331.53;5024711;28;9692;-71
2022/01/28 12:15:08;;;;;;;;;0.00;0.00;;;;;9.61;62.67;103330.91;5040873;28;9885;-72
2022/01/28 12:17:36;;;;;;;;;1.00;0.00;;;;;9.52;62.23;103327.97;5055249;28;9700;-72
2022/01/28 12:20:37;;;;;;;;;0.00;0.00;;;;;9.74;63.10;103326.25;5055160;28;9698;-70
2022/01/28 12:23:04;;;;;;;;;0.00;0.00;;;;;9.81;63.06;103322.94;5043587;28;10533;-72
2022/01/28 12:25:40;;;;;;;;;1.00;0.25;;;;;9.72;62.85;103322.81;5043768;28;9764;-74
2022/01/28 12:28:32;;;;;;;;;1.50;0.00;;;;;9.53;63.28;103318.00;5059480;28;9865;-72
2022/01/28 12:31:16;;;;;;;;;1.25;1.25;;;;;9.21;63.58;103318.69;5059931;28;9804;-73
2022/01/28 12:33:46;;;;;;;;;1.00;0.00;;;;;9.14;64.58;103317.44;5058506;28;9850;-71
2022/01/28 12:36:16;;;;;;;;;0.00;0.00;;;;;9.29;64.59;103306.41;5061828;28;9832;-74
2022/01/28 12:38:56;;;;;;;;;0.00;0.00;;;;;9.50;63.48;103297.47;5055486;28;10619;-73
2022/01/28 12:41:24;;;;;;;;;0.00;0.00;;;;;9.69;63.46;103290.59;5059995;28;9850;-73
2022/01/28 12:43:51;;;;;;;;;0.00;0.00;;;;;9.79;62.91;103289.72;5058248;28;10770;-73
2022/01/28 12:46:18;;;;;;;;;0.00;0.00;;;;;9.67;62.03;103279.91;5056020;28;10699;-74
2022/01/28 12:48:51;;;;;;;;;1.00;0.00;;;;;9.68;62.31;103281.63;5060305;28;9753;-72
2022/01/28 12:51:23;;;;;;;;;0.00;0.00;;;;;9.62;63.26;103284.81;5060693;28;9811;-70
2022/01/28 12:53:54;;;;;;;;;2.00;0.00;;;;;9.59;63.39;103290.47;5058766;28;10826;-72
2022/01/28 12:56:33;;;;;;;;;1.25;0.25;;;;;9.27;64.45;103294.88;5059697;28;9664;-71
2022/01/28 12:59:02;;;;;;;;;1.00;0.00;;;;;9.27;64.30;103284.91;5058652;28;9770;-71
2022/01/28 13:01:30;;;;;;;;;0.00;0.00;;;;;9.42;64.45;103270.19;5041797;28;9824;-70
2022/01/28 13:04:10;;;;;;;;;1.25;0.50;;;;;9.55;64.65;103275.47;5053120;28;9711;-72
2022/01/28 13:09:16;;;;;;;;;0.00;0.00;;;;;9.67;64.25;103260.13;5059620;28;9914;-72
2022/01/28 13:11:51;;;;;;;;;0.00;0.00;;;;;9.71;64.12;103261.59;5045407;28;9840;-70
2022/01/28 13:14:29;;;;;;;;;0.00;0.00;;;;;9.57;63.19;103262.69;5043310;28;9924;-72
2022/01/28 13:17:03;;;;;;;;;1.00;1.00;;;;;9.32;64.17;103255.66;5056768;28;9912;-71
2022/01/28 13:19:30;;;;;;;;;0.00;0.00;;;;;9.51;63.91;103268.59;5059222;28;9843;-72
2022/01/28 13:21:56;;;;;;;;;0.00;0.00;;;;;9.60;64.34;103267.84;5059191;28;9691;-72
2022/01/28 13:24:25;;;;;;;;;0.00;0.00;;;;;9.67;63.79;103269.09;5059484;28;9862;-71
2022/01/28 13:27:07;;;;;;;;;0.75;0.00;;;;;9.76;63.64;103278.31;5058912;28;9619;-72